createdAt,value
2023-04-23T00:02:13.195Z,150807.81
2023-04-23T00:04:52.068Z,150823.31
2023-04-23T00:07:21.886Z,150841.44
2023-04-23T00:09:52.132Z,150851.78
2023-04-23T00:12:29.193Z,150862.06
2023-04-23T00:14:59.321Z,150856.94
2023-04-23T00:17:29.745Z,150863.38
2023-04-23T00:19:57.693Z,150846.59
2023-04-23T00:22:25.794Z,150827.19
2023-04-23T00:24:53.829Z,150811.69
2023-04-23T00:27:22.214Z,150802.69
2023-04-23T00:29:51.388Z,150820.72
2023-04-23T00:32:23.061Z,150800.09
2023-04-23T00:34:52.749Z,150805.25
2023-04-23T00:37:22.194Z,150794.91
2023-04-23T00:39:50.198Z,150787.16
2023-04-23T00:42:18.314Z,150797.50
2023-04-23T00:44:46.776Z,150810.38
2023-04-23T00:47:16.534Z,150757.41
2023-04-23T00:49:45.583Z,150780.69
2023-04-23T00:52:14.923Z,150762.59
2023-04-23T00:54:48.215Z,150756.13
2023-04-23T00:57:16.871Z,150731.63
2023-04-23T00:59:46.169Z,150722.56
2023-04-23T01:02:20.369Z,150713.50
2023-04-23T01:04:51.275Z,150717.41
2023-04-23T01:07:21.544Z,150717.41
2023-04-23T01:09:52.671Z,150700.59
2023-04-23T01:12:20.684Z,150698.00
2023-04-23T01:14:49.075Z,150686.41
2023-04-23T01:17:17.404Z,150695.47
2023-04-23T01:19:47.198Z,150686.41
2023-04-23T01:22:18.914Z,150674.78
2023-04-23T01:24:50.104Z,150698.00
2023-04-23T01:27:22.385Z,150713.50
2023-04-23T01:29:50.912Z,150696.72
2023-04-23T01:32:19.047Z,150705.75
2023-04-23T01:34:49.203Z,150683.84
2023-04-23T01:37:29.709Z,150701.88
2023-04-23T01:39:57.896Z,150689.00
2023-04-23T01:42:25.955Z,150673.50
2023-04-23T01:44:54.278Z,150699.28
2023-04-23T01:47:22.702Z,150725.16
2023-04-23T01:49:51.051Z,150730.31
2023-04-23T01:52:25.669Z,150727.75
2023-04-23T01:54:53.971Z,150722.56
2023-04-23T01:57:24.264Z,150738.09
2023-04-23T01:59:52.403Z,150712.22
2023-04-23T02:02:21.181Z,150685.13
2023-04-23T02:04:50.905Z,150709.63
2023-04-23T02:07:18.867Z,150704.47
2023-04-23T02:09:49.184Z,150716.09
2023-04-23T02:12:17.081Z,150712.22
2023-04-23T02:14:45.062Z,150669.63
2023-04-23T02:17:13.699Z,150651.53
2023-04-23T02:19:41.769Z,150621.84
2023-04-23T02:22:10.445Z,150623.13
2023-04-23T02:24:42.352Z,150619.25
2023-04-23T02:27:13.122Z,150630.88
2023-04-23T02:29:44.288Z,150596.00
2023-04-23T02:32:12.491Z,150620.56
2023-04-23T02:34:40.778Z,150647.63
2023-04-23T02:37:10.115Z,150614.09
2023-04-23T02:39:39.502Z,150602.47
2023-04-23T02:42:08.208Z,150617.97
2023-04-23T02:44:37.765Z,150559.88
2023-04-23T02:47:07.582Z,150576.66
2023-04-23T02:49:36.580Z,150567.63
2023-04-23T02:52:05.382Z,150594.69
2023-04-23T02:54:34.545Z,150599.88
2023-04-23T02:57:02.670Z,150580.53
2023-04-23T02:59:33.267Z,150554.69
2023-04-23T03:02:02.735Z,150536.56
2023-04-23T03:04:30.977Z,150493.97
2023-04-23T03:06:59.279Z,150527.56
2023-04-23T03:09:27.456Z,150504.31
2023-04-23T03:11:57.474Z,150435.91
2023-04-23T03:14:25.475Z,150474.66
2023-04-23T03:16:53.470Z,150429.44
2023-04-23T03:19:22.866Z,150475.88
2023-04-23T03:21:52.097Z,150459.16
2023-04-23T03:24:20.059Z,150399.78
2023-04-23T03:26:58.687Z,150301.75
2023-04-23T03:29:29.999Z,150417.88
2023-04-23T03:32:01.505Z,150408.81
2023-04-23T03:34:41.141Z,150367.50
2023-04-23T03:37:21.142Z,150389.47
2023-04-23T03:39:51.981Z,150358.50
2023-04-23T03:42:28.740Z,150366.22
2023-04-23T03:45:02.603Z,150410.13
2023-04-23T03:47:34.220Z,150443.66
2023-04-23T03:50:10.304Z,150456.56
2023-04-23T03:52:40.988Z,150495.28
2023-04-23T03:55:10.953Z,150517.22
2023-04-23T03:57:39.280Z,150570.19
2023-04-23T04:00:11.979Z,150603.75
2023-04-23T04:02:40.345Z,150643.75
2023-04-23T04:05:11.316Z,150659.28
2023-04-23T04:07:41.267Z,150664.44
2023-04-23T04:10:12.541Z,150650.22
2023-04-23T04:12:41.907Z,150692.88
2023-04-23T04:15:11.005Z,150685.13
2023-04-23T04:17:39.701Z,150683.84
2023-04-23T04:20:11.270Z,150694.19
2023-04-23T04:22:39.720Z,150701.88
2023-04-23T04:25:09.929Z,150699.28
2023-04-23T04:27:41.121Z,150701.88
2023-04-23T04:30:10.414Z,150719.97
2023-04-23T04:32:40.577Z,150727.75
2023-04-23T04:35:16.512Z,150730.31
2023-04-23T04:37:45.669Z,150738.09
2023-04-23T04:40:15.263Z,150761.31
2023-04-23T04:42:46.504Z,150761.31
2023-04-23T04:45:15.939Z,150757.41
2023-04-23T04:47:44.356Z,150776.81
2023-04-23T04:50:16.355Z,150794.91
2023-04-23T04:52:45.705Z,150815.56
2023-04-23T04:55:14.032Z,150810.38
2023-04-23T04:57:41.897Z,150810.38
2023-04-23T05:00:24.491Z,150863.38
2023-04-23T05:02:53.248Z,150851.78
2023-04-23T05:08:06.134Z,150903.47
2023-04-23T05:10:34.107Z,150937.06
2023-04-23T05:13:02.091Z,150957.75
2023-04-23T05:15:30.137Z,150977.09
2023-04-23T05:17:59.239Z,150944.81
2023-04-23T05:20:29.172Z,150957.75
2023-04-23T05:22:59.496Z,150966.81
2023-04-23T05:25:27.775Z,151000.41
2023-04-23T05:27:55.996Z,151001.69
2023-04-23T05:30:25.218Z,151010.75
2023-04-23T05:32:54.386Z,150971.94
2023-04-23T05:35:22.567Z,150983.56
2023-04-23T05:37:52.024Z,151026.28
2023-04-23T05:40:20.315Z,151031.41
2023-04-23T05:42:48.500Z,151054.69
2023-04-23T05:45:16.533Z,151040.47
2023-04-23T05:47:44.612Z,151006.88
2023-04-23T05:50:12.978Z,151021.09
2023-04-23T05:52:40.898Z,151080.59
2023-04-23T05:55:12.606Z,151078.00
2023-04-23T05:57:40.726Z,151121.97
2023-04-23T06:00:11.855Z,151129.72
2023-04-23T06:02:40.595Z,151136.19
2023-04-23T06:05:17.459Z,151167.28
2023-04-23T06:07:46.692Z,151208.66
2023-04-23T06:10:17.141Z,151212.53
2023-04-23T06:12:45.213Z,151238.44
2023-04-23T06:15:13.539Z,151314.75
2023-04-23T06:17:41.749Z,151441.63
2023-04-23T06:20:11.878Z,151483.03
2023-04-23T06:22:41.155Z,151476.56
2023-04-23T06:25:12.584Z,151439.03
2023-04-23T06:27:42.877Z,151419.59
2023-04-23T06:30:11.711Z,151488.22
2023-04-23T06:32:39.731Z,151538.72
2023-04-23T06:35:09.233Z,151567.25
2023-04-23T06:37:38.086Z,151620.34
2023-04-23T06:40:07.733Z,151801.78
2023-04-23T06:42:35.728Z,151838.13
2023-04-23T06:45:07.701Z,151884.78
2023-04-23T06:47:36.158Z,151919.78
2023-04-23T06:50:08.720Z,152052.13
2023-04-23T06:52:40.885Z,152105.31
2023-04-23T06:55:10.362Z,151931.44
2023-04-23T06:57:38.897Z,151996.31
2023-04-23T07:00:13.226Z,152074.19
2023-04-23T07:02:41.514Z,152206.53
2023-04-23T07:05:11.298Z,152209.13
2023-04-23T07:07:42.986Z,152271.44
2023-04-23T07:10:13.562Z,152306.47
2023-04-23T07:12:42.993Z,152284.44
2023-04-23T07:15:13.319Z,152377.91
2023-04-23T07:17:43.805Z,152431.19
2023-04-23T07:20:12.571Z,152545.50
2023-04-23T07:22:40.648Z,152468.84
2023-04-23T07:25:09.967Z,152375.28
2023-04-23T07:27:38.267Z,152402.63
2023-04-23T07:30:08.141Z,152429.88
2023-04-23T07:32:37.730Z,152484.44
2023-04-23T07:35:10.507Z,152448.09
2023-04-23T07:37:39.485Z,152441.59
2023-04-23T07:40:09.096Z,152568.91
2023-04-23T07:42:38.333Z,152606.56
2023-04-23T07:45:07.926Z,152637.75
2023-04-23T07:47:37.752Z,152796.41
2023-04-23T07:50:06.653Z,152674.16
2023-04-23T07:52:40.799Z,152773.00
2023-04-23T07:55:09.929Z,152960.28
2023-04-23T07:57:40.915Z,153214.06
2023-04-23T08:00:24.527Z,153087.81
2023-04-23T08:02:56.328Z,153204.97
2023-04-23T08:05:45.949Z,153068.31
2023-04-23T08:08:20.786Z,153206.25
2023-04-23T08:10:50.779Z,153251.81
2023-04-23T08:13:27.273Z,153173.72
2023-04-23T08:15:56.310Z,153257.03
2023-04-23T08:18:28.003Z,153129.50
2023-04-23T08:20:57.524Z,153172.44
2023-04-23T08:23:27.118Z,153478.50
2023-04-23T08:25:55.522Z,153550.22
2023-04-23T08:28:24.736Z,153488.94
2023-04-23T08:30:52.990Z,153462.91
2023-04-23T08:33:21.104Z,153501.97
2023-04-23T08:35:50.878Z,153679.25
2023-04-23T08:38:23.198Z,153713.16
2023-04-23T08:40:58.252Z,153791.44
2023-04-23T08:43:32.726Z,153867.06
2023-04-23T08:46:05.338Z,127421.31
2023-04-23T08:48:35.526Z,-20342.19
2023-04-23T08:51:05.802Z,-20354.81
2023-04-23T08:53:35.828Z,-20351.47
2023-04-23T08:56:04.703Z,-20341.75
2023-04-23T08:58:32.925Z,-20329.41
2023-04-23T09:01:02.417Z,-20339.25
2023-04-23T09:03:31.043Z,-20331.22
2023-04-23T09:06:00.953Z,-20335.25
2023-04-23T09:08:31.745Z,-20348.69
2023-04-23T09:11:02.620Z,-20359.66
2023-04-23T09:13:32.394Z,-20340.50
2023-04-23T09:16:02.134Z,-20361.75
2023-04-23T09:18:30.606Z,-20343.84
2023-04-23T09:20:59.058Z,-20370.19
2023-04-23T09:23:27.068Z,-20342.72
2023-04-23T09:25:57.654Z,-20363.97
2023-04-23T09:31:37.270Z,-20298.25
2023-04-23T09:34:15.499Z,-20290.75
2023-04-23T09:36:47.803Z,-20284.22
2023-04-23T09:39:21.373Z,-20292.69
2023-04-23T09:42:04.004Z,-20279.91
2023-04-23T09:44:33.968Z,-20278.38
2023-04-23T09:47:14.734Z,-20293.81
2023-04-23T09:49:49.457Z,-20281.44
2023-04-23T09:52:18.263Z,-20276.97
2023-04-23T09:54:47.848Z,-20277.81
2023-04-23T09:57:20.357Z,-20267.09
2023-04-23T09:59:55.047Z,-20255.81
2023-04-23T10:09:13.556Z,-20258.19
2023-04-23T10:11:43.446Z,-20283.78
2023-04-23T10:14:13.286Z,-20291.59
2023-04-23T10:16:48.959Z,-20353.28
2023-04-23T10:19:21.548Z,-20395.16
2023-04-23T10:21:57.987Z,-20061.09
2023-04-23T10:24:34.662Z,-20410.25
2023-04-23T10:27:04.189Z,-20425.34
2023-04-23T10:29:36.539Z,-15079.13
2023-04-23T10:32:07.745Z,-20405.94
2023-04-23T10:34:35.894Z,-20370.34
2023-04-23T10:37:09.344Z,-20339.41
2023-04-23T10:39:39.103Z,-20325.78
2023-04-23T10:42:09.918Z,-20318.00
2023-04-23T10:47:15.362Z,-20358.13
2023-04-23T10:49:45.248Z,-20399.03
2023-04-23T10:52:19.672Z,-11074.66
2023-04-23T10:54:51.599Z,-20370.19
2023-04-23T10:57:22.728Z,-20390.16
2023-04-23T10:59:58.938Z,-15407.72
2023-04-23T11:02:44.249Z,7350.94
2023-04-23T11:05:12.883Z,14390.56
2023-04-23T11:07:47.769Z,-10390.59
2023-04-23T11:10:18.499Z,-6057.88
2023-04-23T11:12:47.744Z,12394.59
2023-04-23T11:15:22.900Z,36010.78
2023-04-23T11:18:01.715Z,20752.19
2023-04-23T11:20:29.855Z,-713.06
2023-04-23T11:22:58.242Z,-3718.63
2023-04-23T11:25:28.017Z,-8727.66
2023-04-23T11:28:01.484Z,6652.31
2023-04-23T11:30:32.058Z,20103.81
2023-04-23T11:33:04.048Z,14360.91
2023-04-23T11:35:39.762Z,-382.50
2023-04-23T11:38:10.154Z,-8719.88
2023-04-23T11:40:40.372Z,27886.25
2023-04-23T11:43:09.559Z,64950.31
2023-04-23T11:45:40.195Z,98822.97
2023-04-23T11:48:08.442Z,114800.84
2023-04-23T11:50:39.560Z,83094.47
2023-04-23T11:53:15.904Z,103350.59
2023-04-23T11:55:47.914Z,108774.44
2023-04-23T11:58:19.274Z,106843.03
2023-04-23T12:00:49.855Z,118460.13
2023-04-23T12:03:19.597Z,93552.47
2023-04-23T12:05:48.380Z,103781.88
2023-04-23T12:08:22.849Z,63358.06
2023-04-23T12:11:09.391Z,83891.66
2023-04-23T12:13:43.216Z,154569.66
2023-04-23T12:16:13.778Z,154407.59
2023-04-23T12:18:44.544Z,126913.91
2023-04-23T12:21:14.101Z,123903.84
2023-04-23T12:23:44.797Z,121346.94
2023-04-23T12:26:15.710Z,65635.28
2023-04-23T12:28:48.176Z,98444.47
2023-04-23T12:31:55.092Z,114458.75
2023-04-23T12:34:28.700Z,134583.00
2023-04-23T12:36:59.348Z,112383.44
2023-04-23T12:40:09.559Z,79705.69
2023-04-23T12:42:53.780Z,68735.84
2023-04-23T12:45:51.369Z,87206.31
2023-04-23T12:48:34.838Z,59480.88
2023-04-23T12:51:21.150Z,42878.13
2023-04-23T12:53:55.575Z,41181.59
2023-04-23T12:56:26.242Z,-4382.16
2023-04-23T12:59:10.756Z,-20290.47
2023-04-23T13:01:43.266Z,-20296.47
2023-04-23T13:04:13.355Z,-20301.59
2023-04-23T13:06:48.331Z,-20303.97
2023-04-23T13:09:16.997Z,-4714.78
2023-04-23T13:11:47.013Z,3277.91
2023-04-23T13:14:14.994Z,11284.53
2023-04-23T13:16:43.324Z,17323.09
2023-04-23T13:19:13.020Z,39182.13
2023-04-23T13:21:41.294Z,32114.47
2023-04-23T13:24:10.963Z,68435.19
2023-04-23T13:26:40.563Z,93846.00
2023-04-23T13:29:18.970Z,135395.09
2023-04-23T13:31:52.476Z,139283.31
2023-04-23T13:34:21.580Z,154427.16
2023-04-23T13:36:50.872Z,154428.44
2023-04-23T13:39:21.572Z,154384.06
2023-04-23T13:42:06.191Z,154509.53
2023-04-23T13:44:43.268Z,154564.41
2023-04-23T13:47:12.748Z,154512.16
2023-04-23T13:49:41.094Z,154482.06
2023-04-23T13:52:09.284Z,154312.19
2023-04-23T13:54:39.969Z,154258.66
2023-04-23T13:57:10.993Z,154112.41
2023-04-23T13:59:39.624Z,154078.47
2023-04-23T14:02:08.986Z,140093.63
2023-04-23T14:04:39.874Z,154151.56
2023-04-23T14:07:10.270Z,154070.66
2023-04-23T14:09:41.303Z,154236.44
2023-04-23T14:12:10.483Z,154339.66
2023-04-23T14:14:41.936Z,154309.59
2023-04-23T14:17:09.980Z,154339.66
2023-04-23T14:19:38.019Z,154431.06
2023-04-23T14:22:10.235Z,154627.16
2023-04-23T14:24:47.304Z,154598.38
2023-04-23T14:27:15.778Z,154717.38
2023-04-23T14:29:52.079Z,155035.25
2023-04-23T14:32:22.213Z,154744.81
2023-04-23T14:34:55.795Z,154676.88
2023-04-23T14:37:24.120Z,154705.59
2023-04-23T14:39:53.777Z,154587.91
2023-04-23T14:54:17.259Z,154164.63
2023-04-23T14:57:01.946Z,154159.41
2023-04-23T15:13:08.990Z,154069.38
2023-04-23T15:15:45.300Z,154030.19
2023-04-23T15:18:15.694Z,154096.75
2023-04-23T15:20:44.482Z,154088.91
2023-04-23T15:23:12.665Z,154035.41
2023-04-23T15:25:40.996Z,154126.78
2023-04-23T15:28:11.640Z,154103.28
2023-04-23T15:30:45.803Z,153987.06
2023-04-23T15:33:14.961Z,154117.66
2023-04-23T15:35:47.258Z,153977.94
2023-04-23T15:38:16.081Z,154018.44
2023-04-23T15:40:44.558Z,153927.06
2023-04-23T15:43:14.717Z,153929.69
2023-04-23T15:45:43.653Z,153873.59
2023-04-23T15:48:11.719Z,153933.59
2023-04-23T15:50:39.628Z,153835.78
2023-04-23T15:53:07.760Z,153887.94
2023-04-23T15:55:35.926Z,153887.94
2023-04-23T15:58:04.335Z,153812.28
2023-04-23T16:00:33.935Z,112887.97
2023-04-23T16:03:04.639Z,90902.34
2023-04-23T16:05:33.188Z,107367.25
2023-04-23T16:08:01.297Z,110793.38
2023-04-23T16:10:33.988Z,98726.53
2023-04-23T16:13:03.958Z,73731.75
2023-04-23T16:15:43.202Z,80187.84
2023-04-23T16:18:11.623Z,48932.59
2023-04-23T16:20:42.162Z,62813.19
2023-04-23T16:23:10.278Z,53328.09
2023-04-23T16:25:40.345Z,58393.28
2023-04-23T16:28:09.029Z,53976.44
2023-04-23T16:30:39.469Z,42499.41
2023-04-23T16:33:07.920Z,37111.66
2023-04-23T16:35:36.319Z,30705.38
2023-04-23T16:38:04.692Z,28017.44
2023-04-23T16:40:41.501Z,16960.31
2023-04-23T16:43:10.384Z,15286.97
2023-04-23T16:45:41.375Z,939.97
2023-04-23T16:48:12.993Z,-59.03
2023-04-23T16:50:42.821Z,-9692.81
2023-04-23T16:53:11.766Z,2604.78
2023-04-23T16:55:39.833Z,606.81
2023-04-23T16:58:07.899Z,-4380.78
2023-04-23T17:00:38.238Z,-6041.22
2023-04-23T17:03:07.932Z,-11347.59
2023-04-23T17:05:36.243Z,-15651.72
2023-04-23T17:08:04.285Z,-17305.19
2023-04-23T17:10:42.282Z,-8693.72
2023-04-23T17:13:12.122Z,-20275.19
2023-04-23T17:15:41.317Z,-20271.25
2023-04-23T17:18:22.330Z,-20258.19
2023-04-23T17:20:55.823Z,-20248.00
2023-04-23T17:23:31.734Z,-20244.50
2023-04-23T17:26:02.421Z,-20242.56
2023-04-23T17:28:31.906Z,-20237.81
2023-04-23T17:31:19.016Z,-20232.66
2023-04-23T17:33:50.633Z,-20239.50
2023-04-23T17:36:19.177Z,-20232.81
2023-04-23T17:38:47.317Z,-20230.84
2023-04-23T17:41:16.816Z,-20231.00
2023-04-23T17:43:45.197Z,-20226.66
2023-04-23T17:46:13.863Z,-20222.75
2023-04-23T17:48:45.218Z,-20221.66
2023-04-23T17:51:17.616Z,-20206.56
2023-04-23T17:53:48.786Z,-20194.44
2023-04-23T17:56:18.142Z,-20183.13
2023-04-23T17:58:46.376Z,-20170.66
2023-04-23T18:01:15.440Z,-20160.19
2023-04-23T18:03:43.995Z,152094.94
2023-04-23T18:06:16.769Z,152037.81
2023-04-23T18:08:46.905Z,151998.91
2023-04-23T18:11:17.708Z,152000.19
2023-04-23T18:13:55.796Z,151988.50
2023-04-23T18:16:24.585Z,151967.75
2023-04-23T18:19:01.226Z,151936.63
2023-04-23T18:21:45.397Z,151943.13
2023-04-23T18:24:15.572Z,151972.94
2023-04-23T18:26:51.961Z,151937.94
2023-04-23T18:29:21.548Z,151931.44
2023-04-23T18:32:04.815Z,151935.34
2023-04-23T18:34:47.503Z,151887.38
2023-04-23T18:37:43.994Z,151884.78
2023-04-23T18:40:16.027Z,151870.50
2023-04-23T18:42:44.383Z,151931.44
2023-04-23T18:45:13.679Z,151917.19
2023-04-23T18:47:57.352Z,151888.66
2023-04-23T18:50:50.231Z,151878.28
2023-04-23T18:53:23.502Z,151838.13
2023-04-23T18:55:54.067Z,151945.72
2023-04-23T18:58:29.837Z,151913.28
2023-04-23T19:01:02.315Z,151900.34
2023-04-23T19:03:30.672Z,151882.19
2023-04-23T19:06:08.073Z,151869.22
2023-04-23T19:08:43.975Z,151862.72
2023-04-23T19:11:14.145Z,151865.31
2023-04-23T19:13:44.567Z,151856.22
2023-04-23T19:16:23.421Z,151871.81
2023-04-23T19:18:56.046Z,151878.28
2023-04-23T19:21:30.411Z,151926.25
2023-04-23T19:24:02.574Z,151869.22
2023-04-23T19:26:30.982Z,151821.25
2023-04-23T19:28:59.470Z,151835.53
2023-04-23T19:31:56.063Z,151862.72
2023-04-23T19:37:21.525Z,151830.31
2023-04-23T19:40:01.238Z,151847.19
2023-04-23T19:42:31.178Z,151886.06
2023-04-23T19:45:07.321Z,151913.28
2023-04-23T19:47:41.677Z,151914.56
2023-04-23T19:50:11.129Z,151928.84
2023-04-23T19:52:43.160Z,151887.38
2023-04-23T19:55:19.610Z,151840.72
2023-04-23T19:57:48.114Z,151814.75
2023-04-23T20:00:18.829Z,151875.69
2023-04-23T20:02:47.649Z,151886.06
2023-04-23T20:05:17.150Z,151853.69
2023-04-23T20:07:46.021Z,151867.91
2023-04-23T20:10:33.175Z,151854.97
2023-04-23T20:13:05.973Z,151787.56
2023-04-23T20:15:37.712Z,151840.72
2023-04-23T20:18:08.648Z,151856.22
2023-04-23T20:20:49.277Z,151822.53
2023-04-23T20:23:21.507Z,151838.13
2023-04-23T20:25:59.369Z,151838.13
2023-04-23T20:28:27.996Z,151813.47
2023-04-23T20:30:57.207Z,151862.72
2023-04-23T20:33:25.837Z,151838.13
2023-04-23T20:35:54.619Z,151817.34
2023-04-23T20:38:24.890Z,151840.72
2023-04-23T20:40:53.370Z,151845.91
2023-04-23T20:43:24.754Z,151821.25
2023-04-23T20:45:52.869Z,151795.34
2023-04-23T20:48:21.123Z,151817.34
2023-04-23T20:50:49.258Z,151826.44
2023-04-23T20:53:18.689Z,151788.88
2023-04-23T20:55:46.554Z,151784.97
2023-04-23T20:58:14.791Z,151799.25
2023-04-23T21:00:45.044Z,151806.97
2023-04-23T21:03:15.158Z,151804.38
2023-04-23T21:05:44.736Z,151821.25
2023-04-23T21:08:15.096Z,151788.88
2023-04-23T21:10:43.866Z,151770.69
2023-04-23T21:13:13.321Z,151768.09
2023-04-23T21:15:43.938Z,151757.72
2023-04-23T21:18:14.453Z,151769.41
2023-04-23T21:20:42.814Z,151773.31
2023-04-23T21:23:12.363Z,151743.50
2023-04-23T21:25:41.509Z,151772.00
2023-04-23T21:28:09.643Z,151716.28
2023-04-23T21:31:20.274Z,151761.63
2023-04-23T21:33:56.680Z,151748.66
2023-04-23T21:36:25.713Z,151737.03
2023-04-23T21:38:54.750Z,151727.94
2023-04-23T21:41:24.602Z,151698.13
2023-04-23T21:43:52.693Z,151762.91
2023-04-23T21:53:25.204Z,151755.13
2023-04-23T21:55:56.465Z,151762.91
2023-04-23T21:58:25.366Z,151781.06
2023-04-23T22:01:05.070Z,151773.31
2023-04-23T22:03:38.595Z,151766.81
2023-04-23T22:06:10.450Z,151784.97
2023-04-23T22:08:48.586Z,151775.88
2023-04-23T22:11:55.219Z,151769.41
2023-04-23T22:14:44.774Z,151753.84
2023-04-23T22:17:30.459Z,151755.13
2023-04-23T22:23:05.105Z,151784.97
2023-04-23T22:33:18.610Z,151737.03
2023-04-23T22:35:48.531Z,151791.47
2023-04-23T22:38:17.643Z,151764.22
2023-04-23T22:40:45.685Z,151761.63
2023-04-23T22:43:13.769Z,151748.66
2023-04-23T22:45:42.085Z,151737.03
2023-04-23T22:48:13.565Z,151739.63
2023-04-23T22:50:42.728Z,151721.47
2023-04-23T22:53:10.827Z,151726.66
2023-04-23T22:55:39.680Z,151725.34
2023-04-23T22:58:10.127Z,151746.06
2023-04-23T23:00:38.308Z,151730.53
2023-04-23T23:03:10.901Z,151716.28
2023-04-23T23:05:40.457Z,151725.34
2023-04-23T23:08:09.776Z,151724.06
2023-04-23T23:10:39.548Z,151718.88
2023-04-23T23:13:07.929Z,151698.13
2023-04-23T23:15:38.400Z,151707.19
2023-04-23T23:18:09.686Z,151692.94
2023-04-23T23:20:40.394Z,151695.53
2023-04-23T23:23:13.066Z,151714.97
2023-04-23T23:25:41.021Z,151702.00
2023-04-23T23:28:09.170Z,151726.66
2023-04-23T23:30:37.678Z,151705.91
2023-04-23T23:33:06.998Z,151657.97
2023-04-23T23:35:35.049Z,151670.94
2023-04-23T23:38:03.839Z,151677.41
2023-04-23T23:40:33.220Z,151685.19
2023-04-23T23:43:01.287Z,151670.94
2023-04-23T23:45:29.612Z,151646.28
2023-04-23T23:47:57.692Z,151656.66
2023-04-23T23:50:26.091Z,151615.16
2023-04-23T23:52:54.209Z,151606.09
2023-04-23T23:55:22.644Z,151587.94
2023-04-23T23:57:56.864Z,151560.75
